createdAt,value
2018-09-21T00:01:37.919Z,18.36
2018-09-21T00:04:11.206Z,18.25
2018-09-21T00:06:40.236Z,18.28
2018-09-21T00:09:10.644Z,18.33
2018-09-21T00:11:39.583Z,18.30
2018-09-21T00:14:08.552Z,18.32
2018-09-21T00:16:37.798Z,18.25
2018-09-21T00:19:06.724Z,18.23
2018-09-21T00:21:35.612Z,18.23
2018-09-21T00:24:04.617Z,18.25
2018-09-21T00:26:33.677Z,18.22
2018-09-21T00:29:02.544Z,18.17
2018-09-21T00:31:31.474Z,18.07
2018-09-21T00:34:00.345Z,17.98
2018-09-21T00:36:29.246Z,17.99
2018-09-21T00:38:58.218Z,17.95
2018-09-21T00:41:27.094Z,18.00
2018-09-21T00:43:56.340Z,17.94
2018-09-21T00:46:25.413Z,17.88
2018-09-21T00:48:54.366Z,17.87
2018-09-21T00:51:23.255Z,17.82
2018-09-21T00:53:52.128Z,17.81
2018-09-21T00:56:21.040Z,17.76
2018-09-21T00:58:49.920Z,17.73
2018-09-21T01:01:18.812Z,17.70
2018-09-21T01:03:47.696Z,17.69
2018-09-21T01:06:16.627Z,17.66
2018-09-21T01:08:45.525Z,17.67
2018-09-21T01:11:14.648Z,17.62
2018-09-21T01:13:43.560Z,17.54
2018-09-21T01:16:12.505Z,17.53
2018-09-21T01:18:41.538Z,17.49
2018-09-21T01:21:10.436Z,17.48
2018-09-21T01:23:39.404Z,17.46
2018-09-21T01:26:08.523Z,17.49
2018-09-21T01:28:37.845Z,17.49
2018-09-21T01:31:07.204Z,17.46
2018-09-21T01:33:36.092Z,17.38
2018-09-21T01:36:05.023Z,17.39
2018-09-21T01:38:33.915Z,17.11
2018-09-21T01:41:03.103Z,17.30
2018-09-21T01:43:32.355Z,17.37
2018-09-21T01:46:01.248Z,17.34
2018-09-21T01:48:30.184Z,17.24
2018-09-21T01:50:59.193Z,17.20
2018-09-21T01:53:28.503Z,17.09
2018-09-21T01:55:57.767Z,17.04
2018-09-21T01:58:26.946Z,17.05
2018-09-21T02:00:56.159Z,17.10
2018-09-21T02:03:25.040Z,17.08
2018-09-21T02:05:53.931Z,17.10
2018-09-21T02:08:23.139Z,17.15
2018-09-21T02:10:52.521Z,17.10
2018-09-21T02:13:21.420Z,17.03
2018-09-21T02:15:51.375Z,17.01
2018-09-21T02:18:20.678Z,16.99
2018-09-21T02:20:50.025Z,17.05
2018-09-21T02:23:19.228Z,17.05
2018-09-21T02:25:48.110Z,17.00
2018-09-21T02:28:17.030Z,17.02
2018-09-21T02:30:45.936Z,17.01
2018-09-21T02:33:15.115Z,17.07
2018-09-21T02:35:44.350Z,17.09
2018-09-21T02:38:13.640Z,17.16
2018-09-21T02:40:42.952Z,17.22
2018-09-21T02:43:12.133Z,17.16
2018-09-21T02:45:41.436Z,17.06
2018-09-21T02:48:10.376Z,17.09
2018-09-21T02:50:39.285Z,17.14
2018-09-21T02:53:08.241Z,17.12
2018-09-21T02:55:37.183Z,17.10
2018-09-21T02:58:06.107Z,17.11
2018-09-21T03:00:35.500Z,17.18
2018-09-21T03:03:04.612Z,17.20
2018-09-21T03:05:33.604Z,17.19
2018-09-21T03:08:02.568Z,17.12
2018-09-21T03:10:31.486Z,17.02
2018-09-21T03:13:00.464Z,16.95
2018-09-21T03:15:29.764Z,16.91
2018-09-21T03:17:59.048Z,16.93
2018-09-21T03:20:28.284Z,16.97
2018-09-21T03:22:57.447Z,17.01
2018-09-21T03:25:26.764Z,17.05
2018-09-21T03:27:55.763Z,16.91
2018-09-21T03:30:24.686Z,17.12
2018-09-21T03:32:53.665Z,17.34
2018-09-21T03:35:22.869Z,17.35
2018-09-21T03:37:51.774Z,17.25
2018-09-21T03:40:20.729Z,17.25
2018-09-21T03:42:49.647Z,17.18
2018-09-21T03:45:18.611Z,17.16
2018-09-21T03:47:47.508Z,17.05
2018-09-21T03:50:16.423Z,16.96
2018-09-21T03:52:45.393Z,16.95
2018-09-21T03:55:14.300Z,16.99
2018-09-21T03:57:43.208Z,17.01
2018-09-21T04:00:12.189Z,16.96
2018-09-21T04:02:41.066Z,16.88
2018-09-21T04:05:10.038Z,16.84
2018-09-21T04:07:38.945Z,16.64
2018-09-21T04:10:07.859Z,16.71
2018-09-21T04:12:36.756Z,16.80
2018-09-21T04:15:06.679Z,16.81
2018-09-21T04:17:35.644Z,16.80
2018-09-21T04:20:04.671Z,16.81
2018-09-21T04:22:33.897Z,16.91
2018-09-21T04:25:03.678Z,16.92
2018-09-21T04:27:33.888Z,16.94
2018-09-21T04:30:02.845Z,16.92
2018-09-21T04:32:31.987Z,16.84
2018-09-21T04:35:01.045Z,16.81
2018-09-21T04:37:30.327Z,16.81
2018-09-21T04:39:59.273Z,16.78
2018-09-21T04:42:28.189Z,16.74
2018-09-21T04:44:57.104Z,16.71
2018-09-21T04:47:25.988Z,16.63
2018-09-21T04:49:54.894Z,16.60
2018-09-21T04:52:23.908Z,16.54
2018-09-21T04:54:52.804Z,16.55
2018-09-21T04:57:21.799Z,16.52
2018-09-21T04:59:50.711Z,16.52
2018-09-21T05:02:19.801Z,16.64
2018-09-21T05:04:49.675Z,16.65
2018-09-21T05:07:18.564Z,16.74
2018-09-21T05:09:48.601Z,16.79
2018-09-21T05:12:17.505Z,16.96
2018-09-21T05:14:46.413Z,17.15
2018-09-21T05:17:15.300Z,17.28
2018-09-21T05:19:44.228Z,17.39
2018-09-21T05:22:13.140Z,17.47
2018-09-21T05:24:42.089Z,17.58
2018-09-21T05:27:10.988Z,17.60
2018-09-21T05:29:39.908Z,17.71
2018-09-21T05:32:08.812Z,17.73
2018-09-21T05:34:37.956Z,17.84
2018-09-21T05:37:06.916Z,18.00
2018-09-21T05:39:35.811Z,18.13
2018-09-21T05:42:04.779Z,18.10
2018-09-21T05:44:33.705Z,18.26
2018-09-21T05:47:02.703Z,18.37
2018-09-21T05:49:31.606Z,18.17
2018-09-21T05:52:00.488Z,18.24
2018-09-21T05:54:29.368Z,18.42
2018-09-21T05:56:58.320Z,18.53
2018-09-21T05:59:27.242Z,18.61
2018-09-21T06:01:56.155Z,18.71
2018-09-21T06:04:25.108Z,18.70
2018-09-21T06:06:54.023Z,18.75
2018-09-21T06:09:22.919Z,18.88
2018-09-21T06:11:51.805Z,18.78
2018-09-21T06:14:20.756Z,18.91
2018-09-21T06:16:49.704Z,18.84
2018-09-21T06:19:18.657Z,18.92
2018-09-21T06:21:47.677Z,18.93
2018-09-21T06:24:16.570Z,18.95
2018-09-21T06:26:45.565Z,18.57
2018-09-21T06:29:14.455Z,18.71
2018-09-21T06:31:43.432Z,18.86
2018-09-21T06:34:12.352Z,18.90
2018-09-21T06:36:41.225Z,18.82
2018-09-21T06:39:11.637Z,18.92
2018-09-21T06:41:40.661Z,18.98
2018-09-21T06:44:09.936Z,18.75
2018-09-21T06:46:38.896Z,18.46
2018-09-21T06:49:07.800Z,18.83
2018-09-21T06:51:36.727Z,18.88
2018-09-21T06:54:05.652Z,19.09
2018-09-21T06:56:34.567Z,19.26
2018-09-21T06:59:03.514Z,19.46
2018-09-21T07:01:32.538Z,19.51
2018-09-21T07:04:01.375Z,19.38
2018-09-21T07:06:30.300Z,19.57
2018-09-21T07:08:59.305Z,19.71
2018-09-21T07:11:28.238Z,19.67
2018-09-21T07:13:57.196Z,19.57
2018-09-21T07:16:26.076Z,19.46
2018-09-21T07:18:54.972Z,19.72
2018-09-21T07:21:23.956Z,19.86
2018-09-21T07:23:52.882Z,19.88
2018-09-21T07:26:21.788Z,19.73
2018-09-21T07:28:50.704Z,19.84
2018-09-21T07:31:19.660Z,19.85
2018-09-21T07:33:48.938Z,19.93
2018-09-21T07:36:18.007Z,20.01
2018-09-21T07:38:46.910Z,19.91
2018-09-21T07:41:15.808Z,19.86
2018-09-21T07:43:44.724Z,20.03
2018-09-21T07:46:13.640Z,19.99
2018-09-21T07:48:42.574Z,20.07
2018-09-21T07:51:11.559Z,20.10
2018-09-21T07:53:40.457Z,20.05
2018-09-21T07:56:09.364Z,20.03
2018-09-21T07:58:38.270Z,20.07
2018-09-21T08:01:07.196Z,20.23
2018-09-21T08:03:36.113Z,20.30
2018-09-21T08:06:05.007Z,20.46
2018-09-21T08:08:33.931Z,20.49
2018-09-21T08:11:02.823Z,20.44
2018-09-21T08:13:31.786Z,20.42
2018-09-21T08:16:00.687Z,20.50
2018-09-21T08:18:29.625Z,20.65
2018-09-21T08:20:58.639Z,20.77
2018-09-21T08:23:27.592Z,20.62
2018-09-21T08:25:56.527Z,20.61
2018-09-21T08:28:25.480Z,20.67
2018-09-21T08:30:54.443Z,20.85
2018-09-21T08:33:23.335Z,20.84
2018-09-21T08:35:52.438Z,20.89
2018-09-21T08:38:21.375Z,21.07
2018-09-21T08:40:50.238Z,21.14
2018-09-21T08:43:19.198Z,21.20
2018-09-21T08:45:48.419Z,21.26
2018-09-21T08:48:17.315Z,21.23
2018-09-21T08:50:46.227Z,21.28
2018-09-21T08:53:15.119Z,21.01
2018-09-21T08:55:43.995Z,20.99
2018-09-21T08:58:12.975Z,21.24
2018-09-21T09:00:41.861Z,21.40
2018-09-21T09:03:10.862Z,21.57
2018-09-21T09:05:39.879Z,21.70
2018-09-21T09:08:08.777Z,21.72
2018-09-21T09:10:37.652Z,21.71
2018-09-21T09:13:06.554Z,21.89
2018-09-21T09:15:35.559Z,21.99
2018-09-21T09:18:04.448Z,21.96
2018-09-21T09:20:33.360Z,21.94
2018-09-21T09:23:03.175Z,21.94
2018-09-21T09:25:32.194Z,22.01
2018-09-21T09:28:01.059Z,22.11
2018-09-21T09:30:30.017Z,22.25
2018-09-21T09:32:58.904Z,22.35
2018-09-21T09:35:27.889Z,22.22
2018-09-21T09:37:56.827Z,22.29
2018-09-21T09:40:25.727Z,22.27
2018-09-21T09:42:54.684Z,22.34
2018-09-21T09:45:23.589Z,22.37
2018-09-21T09:47:52.532Z,22.38
2018-09-21T09:50:21.436Z,22.41
2018-09-21T09:52:50.343Z,22.52
2018-09-21T09:55:19.283Z,22.61
2018-09-21T09:57:48.244Z,22.65
2018-09-21T10:00:21.216Z,22.56
2018-09-21T10:02:50.250Z,22.68
2018-09-21T10:05:19.230Z,22.82
2018-09-21T10:07:48.115Z,22.86
2018-09-21T10:10:17.048Z,22.93
2018-09-21T10:12:45.968Z,22.99
2018-09-21T10:15:14.985Z,22.99
2018-09-21T10:17:43.872Z,23.09
2018-09-21T10:20:12.821Z,23.17
2018-09-21T10:22:41.715Z,23.22
2018-09-21T10:25:10.580Z,23.32
2018-09-21T10:27:39.546Z,23.32
2018-09-21T10:30:08.493Z,23.28
2018-09-21T10:32:37.384Z,23.34
2018-09-21T10:35:06.256Z,23.40
2018-09-21T10:37:35.261Z,23.45
2018-09-21T10:40:04.277Z,23.44
2018-09-21T10:42:33.060Z,23.47
2018-09-21T10:45:02.066Z,23.57
2018-09-21T10:47:30.947Z,23.61
2018-09-21T10:49:59.878Z,23.58
2018-09-21T10:52:28.746Z,23.63
2018-09-21T10:54:58.132Z,23.63
2018-09-21T10:57:27.204Z,23.61
2018-09-21T10:59:56.096Z,23.60
2018-09-21T11:02:25.267Z,23.59
2018-09-21T11:04:54.211Z,23.68
2018-09-21T11:07:23.153Z,23.82
2018-09-21T11:09:52.097Z,23.85
2018-09-21T11:12:21.047Z,23.78
2018-09-21T11:14:49.920Z,23.89
2018-09-21T11:17:18.755Z,23.96
2018-09-21T11:19:47.611Z,23.87
2018-09-21T11:22:16.460Z,23.95
2018-09-21T11:24:45.364Z,24.05
2018-09-21T11:27:14.228Z,24.13
2018-09-21T11:29:43.080Z,24.25
2018-09-21T11:32:11.983Z,24.29
2018-09-21T11:34:40.932Z,24.33
2018-09-21T11:37:10.783Z,24.30
2018-09-21T11:39:39.645Z,24.31
2018-09-21T11:42:08.504Z,24.24
2018-09-21T11:44:37.438Z,24.24
2018-09-21T11:47:06.510Z,24.30
2018-09-21T11:49:35.484Z,24.37
2018-09-21T11:52:04.360Z,24.44
2018-09-21T11:54:33.260Z,24.54
2018-09-21T11:57:02.176Z,24.57
2018-09-21T11:59:31.184Z,24.61
2018-09-21T12:02:00.134Z,24.59
2018-09-21T12:04:29.000Z,24.64
2018-09-21T12:06:57.850Z,24.56
2018-09-21T12:09:26.771Z,24.58
2018-09-21T12:11:55.619Z,24.66
2018-09-21T12:14:24.476Z,24.64
2018-09-21T12:16:53.377Z,24.68
2018-09-21T12:19:22.258Z,24.69
2018-09-21T12:21:51.119Z,24.70
2018-09-21T12:24:20.114Z,24.74
2018-09-21T12:26:49.044Z,24.70
2018-09-21T12:29:17.947Z,24.76
2018-09-21T12:31:47.213Z,24.81
2018-09-21T12:34:16.093Z,24.81
2018-09-21T12:36:44.994Z,24.81
2018-09-21T12:39:14.942Z,24.81
2018-09-21T12:41:44.415Z,24.84
2018-09-21T12:44:14.908Z,24.87
2018-09-21T12:46:43.855Z,24.87
2018-09-21T12:49:12.732Z,24.87
2018-09-21T12:51:41.712Z,24.88
2018-09-21T12:54:10.579Z,24.83
2018-09-21T12:56:39.520Z,24.88
2018-09-21T12:59:08.508Z,24.86
2018-09-21T13:01:37.464Z,24.86
2018-09-21T13:04:06.335Z,24.84
2018-09-21T13:06:35.194Z,24.87
2018-09-21T13:09:05.480Z,24.92
2018-09-21T13:11:34.382Z,24.98
2018-09-21T13:14:03.322Z,24.91
2018-09-21T13:16:32.228Z,24.96
2018-09-21T13:19:01.174Z,24.97
2018-09-21T13:21:30.050Z,24.95
2018-09-21T13:23:58.964Z,24.95
2018-09-21T13:26:27.842Z,24.95
2018-09-21T13:28:56.722Z,24.91
2018-09-21T13:31:25.676Z,24.89
2018-09-21T13:33:54.540Z,24.89
2018-09-21T13:36:23.473Z,24.87
2018-09-21T13:38:52.359Z,24.85
2018-09-21T13:41:21.270Z,24.86
2018-09-21T13:43:50.226Z,24.92
2018-09-21T13:46:19.196Z,24.91
2018-09-21T13:48:48.170Z,24.94
2018-09-21T13:51:17.112Z,24.96
2018-09-21T13:53:45.998Z,24.90
2018-09-21T13:56:14.902Z,24.90
2018-09-21T13:58:43.847Z,24.79
2018-09-21T14:01:12.716Z,24.82
2018-09-21T14:03:41.591Z,24.86
2018-09-21T14:06:10.540Z,24.90
2018-09-21T14:08:39.416Z,24.88
2018-09-21T14:11:08.468Z,24.88
2018-09-21T14:13:37.350Z,24.87
2018-09-21T14:16:06.672Z,24.90
2018-09-21T14:18:35.669Z,24.93
2018-09-21T14:21:04.808Z,24.91
2018-09-21T14:23:33.711Z,24.96
2018-09-21T14:26:05.192Z,24.91
2018-09-21T14:28:34.110Z,24.95
2018-09-21T14:31:03.028Z,24.93
2018-09-21T14:33:32.072Z,24.96
2018-09-21T14:36:01.017Z,25.01
2018-09-21T14:38:29.940Z,25.13
2018-09-21T14:40:58.853Z,25.12
2018-09-21T14:43:27.780Z,25.14
2018-09-21T14:45:56.677Z,25.16
2018-09-21T14:48:25.707Z,25.18
2018-09-21T14:50:54.683Z,25.12
2018-09-21T14:53:23.548Z,25.08
2018-09-21T14:55:52.510Z,25.14
2018-09-21T14:58:21.387Z,25.02
2018-09-21T15:00:50.349Z,24.90
2018-09-21T15:03:19.274Z,24.94
2018-09-21T15:05:48.215Z,24.84
2018-09-21T15:08:17.164Z,24.87
2018-09-21T15:10:46.125Z,24.78
2018-09-21T15:13:15.021Z,24.79
2018-09-21T15:15:43.996Z,24.78
2018-09-21T15:18:12.891Z,24.79
2018-09-21T15:20:41.770Z,24.84
2018-09-21T15:23:10.691Z,24.71
2018-09-21T15:25:39.598Z,24.67
2018-09-21T15:28:08.554Z,24.63
2018-09-21T15:30:37.444Z,24.58
2018-09-21T15:33:06.368Z,24.55
2018-09-21T15:35:35.292Z,24.58
2018-09-21T15:38:04.260Z,24.59
2018-09-21T15:40:33.236Z,24.52
2018-09-21T15:43:02.215Z,24.40
2018-09-21T15:45:31.119Z,24.38
2018-09-21T15:48:00.021Z,24.35
2018-09-21T15:50:28.955Z,24.25
2018-09-21T15:52:57.860Z,24.17
2018-09-21T15:55:26.774Z,24.26
2018-09-21T15:57:55.773Z,24.27
2018-09-21T16:00:24.692Z,24.23
2018-09-21T16:02:53.591Z,24.17
2018-09-21T16:05:22.550Z,24.07
2018-09-21T16:07:51.446Z,24.00
2018-09-21T16:10:20.391Z,24.08
2018-09-21T16:12:49.437Z,24.02
2018-09-21T16:15:19.676Z,24.01
2018-09-21T16:17:48.573Z,23.91
2018-09-21T16:20:17.529Z,23.92
2018-09-21T16:22:46.924Z,23.82
2018-09-21T16:25:15.855Z,23.63
2018-09-21T16:27:44.756Z,23.59
2018-09-21T16:30:13.647Z,23.66
2018-09-21T16:32:42.703Z,23.73
2018-09-21T16:35:11.940Z,23.71
2018-09-21T16:37:41.180Z,23.67
2018-09-21T16:40:10.272Z,23.44
2018-09-21T16:42:39.663Z,23.46
2018-09-21T16:45:08.734Z,23.50
2018-09-21T16:47:37.669Z,23.40
2018-09-21T16:50:06.912Z,23.38
2018-09-21T16:52:35.985Z,23.38
2018-09-21T16:55:04.956Z,23.42
2018-09-21T16:57:33.941Z,23.38
2018-09-21T17:00:03.095Z,23.30
2018-09-21T17:02:32.136Z,23.33
2018-09-21T17:05:01.144Z,23.33
2018-09-21T17:07:30.144Z,23.21
2018-09-21T17:09:59.079Z,23.37
2018-09-21T17:12:28.014Z,23.38
2018-09-21T17:14:57.036Z,23.37
2018-09-21T17:17:25.997Z,23.43
2018-09-21T17:19:55.011Z,23.43
2018-09-21T17:22:24.000Z,23.37
2018-09-21T17:24:52.974Z,23.29
2018-09-21T17:27:21.889Z,23.29
2018-09-21T17:29:50.766Z,23.11
2018-09-21T17:32:19.640Z,23.08
2018-09-21T17:34:48.566Z,23.01
2018-09-21T17:37:17.476Z,23.07
2018-09-21T17:39:46.365Z,23.12
2018-09-21T17:42:15.304Z,23.07
2018-09-21T17:44:44.849Z,23.01
2018-09-21T17:47:13.739Z,23.10
2018-09-21T17:49:42.627Z,23.07
2018-09-21T17:52:11.632Z,23.16
2018-09-21T17:54:40.623Z,23.19
2018-09-21T17:57:09.579Z,23.02
2018-09-21T17:59:38.598Z,22.96
2018-09-21T18:02:07.794Z,23.03
2018-09-21T18:04:36.800Z,23.02
2018-09-21T18:07:05.720Z,23.04
2018-09-21T18:09:34.588Z,22.93
2018-09-21T18:12:03.492Z,22.91
2018-09-21T18:14:32.554Z,22.90
2018-09-21T18:17:01.443Z,23.01
2018-09-21T18:19:30.368Z,22.91
2018-09-21T18:21:59.331Z,22.92
2018-09-21T18:24:28.412Z,22.85
2018-09-21T18:26:57.352Z,22.78
2018-09-21T18:29:26.224Z,22.85
2018-09-21T18:31:55.105Z,22.85
2018-09-21T18:34:24.041Z,22.92
2018-09-21T18:36:52.972Z,22.90
2018-09-21T18:39:21.884Z,23.02
2018-09-21T18:41:50.757Z,23.00
2018-09-21T18:44:19.710Z,23.04
2018-09-21T18:46:49.015Z,23.01
2018-09-21T18:49:18.010Z,23.08
2018-09-21T18:51:46.922Z,23.09
2018-09-21T18:54:15.958Z,23.10
2018-09-21T18:56:45.280Z,23.06
2018-09-21T18:59:14.328Z,22.98
2018-09-21T19:01:43.233Z,23.00
2018-09-21T19:04:12.201Z,22.96
2018-09-21T19:06:41.107Z,22.91
2018-09-21T19:09:11.624Z,22.84
2018-09-21T19:11:40.602Z,22.82
2018-09-21T19:14:09.811Z,22.70
2018-09-21T19:16:38.708Z,22.59
2018-09-21T19:19:07.674Z,22.52
2018-09-21T19:21:36.819Z,22.55
2018-09-21T19:24:05.799Z,22.51
2018-09-21T19:26:34.798Z,22.65
2018-09-21T19:29:03.846Z,22.72
2018-09-21T19:31:32.723Z,22.67
2018-09-21T19:34:01.692Z,22.49
2018-09-21T19:36:30.608Z,22.35
2018-09-21T19:38:59.596Z,22.24
2018-09-21T19:41:28.483Z,22.25
2018-09-21T19:43:57.452Z,22.19
2018-09-21T19:46:26.460Z,21.99
2018-09-21T19:48:55.341Z,22.01
2018-09-21T19:51:24.290Z,21.89
2018-09-21T19:53:53.159Z,21.87
2018-09-21T19:56:22.075Z,21.91
2018-09-21T19:58:51.021Z,21.85
2018-09-21T20:01:19.909Z,21.77
2018-09-21T20:03:48.815Z,21.87
2018-09-21T20:06:17.717Z,21.81
2018-09-21T20:08:46.635Z,21.86
2018-09-21T20:11:15.582Z,21.72
2018-09-21T20:13:44.480Z,21.77
2018-09-21T20:16:13.360Z,21.74
2018-09-21T20:18:42.223Z,21.80
2018-09-21T20:21:11.192Z,21.78
2018-09-21T20:23:40.314Z,21.89
2018-09-21T20:26:09.532Z,21.92
2018-09-21T20:28:39.116Z,21.95
2018-09-21T20:31:13.171Z,22.03
2018-09-21T20:33:42.576Z,22.09
2018-09-21T20:36:11.555Z,22.08
2018-09-21T20:38:40.456Z,22.00
2018-09-21T20:41:09.429Z,21.94
2018-09-21T20:43:38.324Z,21.84
2018-09-21T20:46:07.218Z,21.79
2018-09-21T20:48:36.092Z,21.63
2018-09-21T20:51:05.401Z,21.50
2018-09-21T20:53:34.298Z,21.47
2018-09-21T20:56:03.188Z,21.44
2018-09-21T20:58:32.142Z,21.38
2018-09-21T21:01:01.064Z,21.38
2018-09-21T21:03:29.988Z,21.28
2018-09-21T21:05:58.903Z,21.31
2018-09-21T21:08:27.763Z,21.35
2018-09-21T21:10:56.671Z,21.34
2018-09-21T21:13:25.564Z,21.31
2018-09-21T21:15:54.487Z,21.26
2018-09-21T21:18:23.900Z,21.18
2018-09-21T21:20:52.981Z,21.13
2018-09-21T21:23:21.898Z,21.00
2018-09-21T21:25:50.768Z,20.93
2018-09-21T21:28:19.692Z,20.81
2018-09-21T21:30:48.598Z,20.60
2018-09-21T21:33:17.492Z,20.51
2018-09-21T21:35:46.450Z,20.42
2018-09-21T21:38:15.440Z,20.36
2018-09-21T21:40:44.400Z,20.24
2018-09-21T21:43:13.404Z,20.20
2018-09-21T21:45:42.310Z,20.15
2018-09-21T21:48:11.180Z,20.13
2018-09-21T21:50:40.096Z,20.09
2018-09-21T21:53:08.979Z,20.13
2018-09-21T21:55:37.887Z,20.10
2018-09-21T21:58:07.155Z,20.04
2018-09-21T22:00:42.211Z,19.98
2018-09-21T22:03:11.115Z,19.95
2018-09-21T22:05:40.047Z,19.88
2018-09-21T22:08:08.917Z,19.86
2018-09-21T22:10:37.833Z,19.80
2018-09-21T22:13:11.879Z,19.83
2018-09-21T22:15:40.840Z,19.84
2018-09-21T22:18:09.762Z,19.73
2018-09-21T22:20:38.730Z,19.67
2018-09-21T22:23:07.705Z,19.65
2018-09-21T22:25:36.609Z,19.55
2018-09-21T22:28:05.875Z,19.56
2018-09-21T22:30:34.908Z,19.63
2018-09-21T22:33:03.940Z,19.57
2018-09-21T22:35:32.891Z,19.68
2018-09-21T22:38:01.764Z,19.61
2018-09-21T22:40:30.681Z,19.61
2018-09-21T22:42:59.723Z,19.56
2018-09-21T22:45:28.675Z,19.49
2018-09-21T22:47:57.625Z,19.41
2018-09-21T22:50:26.584Z,19.42
2018-09-21T22:52:55.474Z,19.35
2018-09-21T22:55:24.460Z,19.29
2018-09-21T22:57:53.339Z,19.29
2018-09-21T23:00:22.281Z,19.26
2018-09-21T23:02:51.168Z,19.10
2018-09-21T23:05:20.044Z,19.02
2018-09-21T23:07:49.044Z,19.02
2018-09-21T23:10:17.947Z,18.92
2018-09-21T23:12:46.858Z,18.88
2018-09-21T23:15:15.792Z,18.86
2018-09-21T23:17:44.729Z,18.84
2018-09-21T23:20:13.612Z,18.81
2018-09-21T23:22:42.883Z,18.80
2018-09-21T23:25:11.849Z,18.78
2018-09-21T23:27:40.799Z,18.76
2018-09-21T23:30:09.740Z,18.75
2018-09-21T23:32:38.626Z,18.81
2018-09-21T23:35:07.539Z,18.79
2018-09-21T23:37:36.436Z,18.73
2018-09-21T23:40:05.487Z,18.78
2018-09-21T23:42:34.424Z,18.79
2018-09-21T23:45:03.404Z,18.73
2018-09-21T23:47:32.380Z,18.66
2018-09-21T23:50:01.267Z,18.59
2018-09-21T23:52:30.161Z,18.52
2018-09-21T23:54:59.036Z,18.51
2018-09-21T23:57:27.895Z,18.49
2018-09-21T23:59:56.835Z,18.44
